TimeCST,TemperatureF,Dew PointF,Humidity,Sea Level PressureIn,VisibilityMPH,Wind Direction,Wind SpeedMPH,Gust SpeedMPH,PrecipitationIn,Events,Conditions,WindDirDegrees,DateUTC
12:53 AM,21.9,19.9,92,30.10,7.0,Calm,Calm,-,N/A,,Clear,0,2012-11-21 06:53:00
1:53 AM,25.0,23.0,92,30.09,6.0,Calm,Calm,-,N/A,,Clear,0,2012-11-21 07:53:00
2:53 AM,34.0,30.0,85,30.06,7.0,South,3.5,-,N/A,,Clear,190,2012-11-21 08:53:00
3:53 AM,37.0,33.1,86,30.03,8.0,South,3.5,-,N/A,,Clear,170,2012-11-21 09:53:00
4:53 AM,36.0,32.0,86,30.03,7.0,Calm,Calm,-,N/A,,Clear,0,2012-11-21 10:53:00
5:53 AM,36.0,32.0,86,30.02,7.0,South,3.5,-,N/A,,Clear,170,2012-11-21 11:53:00
6:53 AM,36.0,30.9,82,30.01,8.0,South,3.5,-,N/A,,Clear,180,2012-11-21 12:53:00
7:53 AM,37.0,32.0,82,30.01,6.0,South,5.8,-,N/A,,Haze,180,2012-11-21 13:53:00
8:53 AM,39.9,34.0,79,30.01,7.0,South,3.5,-,N/A,,Clear,180,2012-11-21 14:53:00
9:53 AM,43.0,36.0,76,29.99,8.0,South,5.8,-,N/A,,Clear,170,2012-11-21 15:53:00
10:53 AM,48.9,36.0,61,29.98,10.0,Variable,5.8,-,N/A,,Clear,0,2012-11-21 16:53:00
11:53 AM,50.0,35.1,57,29.96,10.0,Variable,5.8,-,N/A,,Clear,0,2012-11-21 17:53:00
12:53 PM,51.1,36.0,56,29.94,10.0,SSW,5.8,-,N/A,,Clear,200,2012-11-21 18:53:00
1:53 PM,52.0,36.0,54,29.92,10.0,South,5.8,-,N/A,,Clear,180,2012-11-21 19:53:00
2:53 PM,54.0,37.0,53,29.91,10.0,South,6.9,-,N/A,,Clear,170,2012-11-21 20:53:00
3:53 PM,51.1,37.0,59,29.90,10.0,SSE,4.6,-,N/A,,Clear,160,2012-11-21 21:53:00
4:53 PM,42.1,35.1,76,29.90,10.0,Calm,Calm,-,N/A,,Clear,0,2012-11-21 22:53:00
5:53 PM,37.0,32.0,82,29.89,10.0,Calm,Calm,-,N/A,,Clear,0,2012-11-21 23:53:00
6:53 PM,33.1,30.0,89,29.87,10.0,Calm,Calm,-,N/A,,Clear,0,2012-11-22 00:53:00
7:53 PM,42.1,35.1,76,29.83,10.0,Variable,3.5,-,N/A,,Clear,0,2012-11-22 01:53:00
8:53 PM,46.9,37.9,71,29.82,10.0,South,3.5,-,N/A,,Clear,180,2012-11-22 02:53:00
9:53 PM,46.0,37.9,73,29.80,10.0,South,4.6,-,N/A,,Clear,170,2012-11-22 03:53:00
10:53 PM,57.0,42.1,57,29.76,10.0,SSW,12.7,27.6,N/A,,Clear,200,2012-11-22 04:53:00
11:53 PM,57.0,42.1,57,29.74,10.0,SSW,10.4,18.4,N/A,,Clear,200,2012-11-22 05:53:00